createdAt,value
2018-10-02T00:02:43.942Z,6.22
2018-10-02T00:07:47.762Z,6.04
2018-10-02T00:12:56.630Z,5.88
2018-10-02T00:18:00.125Z,5.91
2018-10-02T00:23:03.720Z,5.93
2018-10-02T00:28:07.418Z,5.99
2018-10-02T00:33:10.978Z,5.91
2018-10-02T00:38:14.654Z,5.81
2018-10-02T00:43:18.323Z,5.77
2018-10-02T00:48:21.933Z,5.82
2018-10-02T00:53:25.530Z,5.91
2018-10-02T00:58:29.204Z,6.06
2018-10-02T01:03:33.078Z,6.14
2018-10-02T01:08:37.124Z,6.07
2018-10-02T01:13:40.815Z,6.16
2018-10-02T01:18:44.402Z,6.16
2018-10-02T01:23:48.033Z,6.16
2018-10-02T01:28:51.558Z,6.10
2018-10-02T01:33:55.112Z,6.14
2018-10-02T01:38:58.666Z,6.15
2018-10-02T01:44:02.372Z,6.16
2018-10-02T01:49:06.046Z,6.17
2018-10-02T01:54:09.622Z,6.25
2018-10-02T01:59:13.358Z,6.36
2018-10-02T02:04:16.977Z,6.54
2018-10-02T02:09:22.865Z,6.64
2018-10-02T02:14:26.413Z,6.73
2018-10-02T02:19:30.014Z,6.83
2018-10-02T02:24:33.549Z,6.86
2018-10-02T02:29:37.448Z,6.91
2018-10-02T02:34:40.959Z,6.90
2018-10-02T02:39:44.465Z,6.98
2018-10-02T02:44:47.981Z,7.02
2018-10-02T02:49:56.748Z,7.05
2018-10-02T02:55:00.710Z,7.07
2018-10-02T03:00:04.561Z,7.10
2018-10-02T03:05:08.170Z,7.18
2018-10-02T03:10:11.844Z,7.20
2018-10-02T03:15:15.438Z,7.29
2018-10-02T03:20:18.985Z,7.32
2018-10-02T03:25:22.566Z,7.39
2018-10-02T03:30:30.886Z,7.46
2018-10-02T03:35:34.563Z,7.49
2018-10-02T03:40:38.302Z,7.51
2018-10-02T03:45:41.896Z,7.53
2018-10-02T03:50:45.482Z,7.55
2018-10-02T03:55:49.256Z,7.59
2018-10-02T04:00:52.794Z,7.56
2018-10-02T04:05:56.577Z,7.63
2018-10-02T04:11:00.138Z,7.68
2018-10-02T04:16:03.982Z,7.73
2018-10-02T04:21:07.706Z,7.71
2018-10-02T04:26:11.334Z,7.74
2018-10-02T04:31:14.945Z,7.80
2018-10-02T04:36:18.593Z,7.82
2018-10-02T04:41:22.198Z,7.85
2018-10-02T04:46:25.878Z,7.95
2018-10-02T04:51:29.484Z,7.97
2018-10-02T04:56:33.065Z,8.02
2018-10-02T05:01:36.652Z,8.09
2018-10-02T05:06:40.392Z,8.19
2018-10-02T05:11:44.376Z,8.30
2018-10-02T05:16:51.811Z,8.37
2018-10-02T05:21:55.523Z,8.41
2018-10-02T05:26:59.104Z,8.39
2018-10-02T05:32:02.697Z,8.43
2018-10-02T05:37:06.287Z,8.31
2018-10-02T05:42:10.207Z,8.32
2018-10-02T05:47:13.806Z,8.26
2018-10-02T05:52:17.385Z,8.21
2018-10-02T05:57:21.001Z,8.16
2018-10-02T06:02:27.309Z,8.14
2018-10-02T06:07:30.832Z,8.14
2018-10-02T06:12:34.447Z,8.10
2018-10-02T06:17:38.037Z,8.14
2018-10-02T06:22:41.603Z,8.18
2018-10-02T06:27:45.116Z,8.09
2018-10-02T06:32:48.880Z,8.08
2018-10-02T06:37:52.478Z,8.03
2018-10-02T06:42:56.152Z,8.09
2018-10-02T06:47:59.876Z,8.15
2018-10-02T06:53:03.489Z,8.23
2018-10-02T06:58:07.187Z,8.24
2018-10-02T07:03:10.813Z,8.24
2018-10-02T07:08:14.503Z,8.21
2018-10-02T07:13:18.070Z,8.29
2018-10-02T07:18:21.661Z,8.43
2018-10-02T07:23:25.264Z,8.41
2018-10-02T07:28:28.879Z,8.40
2018-10-02T07:33:32.556Z,8.53
2018-10-02T07:38:36.250Z,8.54
2018-10-02T07:43:39.807Z,8.60
2018-10-02T07:48:43.367Z,8.56
2018-10-02T07:53:47.023Z,8.55
2018-10-02T07:58:50.607Z,8.63
2018-10-02T08:03:54.238Z,8.69
2018-10-02T08:08:57.918Z,8.56
2018-10-02T08:14:01.572Z,8.69
2018-10-02T08:19:05.283Z,8.85
2018-10-02T08:24:11.322Z,8.68
2018-10-02T08:29:14.914Z,8.71
2018-10-02T08:34:18.396Z,8.86
2018-10-02T08:39:21.940Z,8.85
2018-10-02T08:44:25.564Z,8.92
2018-10-02T08:49:29.050Z,9.02
2018-10-02T08:54:32.595Z,8.96
2018-10-02T08:59:36.367Z,8.92
2018-10-02T09:04:39.926Z,9.02
2018-10-02T09:09:43.536Z,8.98
2018-10-02T09:14:47.150Z,9.17
2018-10-02T09:19:50.688Z,9.33
2018-10-02T09:24:54.229Z,9.51
2018-10-02T09:30:03.527Z,9.40
2018-10-02T09:35:12.359Z,9.35
2018-10-02T09:40:21.328Z,9.30
2018-10-02T09:45:25.090Z,9.31
2018-10-02T09:50:28.833Z,9.21
2018-10-02T09:55:32.399Z,9.17
2018-10-02T10:00:41.445Z,9.11
2018-10-02T10:05:45.185Z,9.12
2018-10-02T10:10:48.823Z,9.09
2018-10-02T10:15:52.462Z,9.17
2018-10-02T10:20:56.023Z,9.19
2018-10-02T10:25:59.712Z,9.27
2018-10-02T10:31:03.412Z,9.34
2018-10-02T10:36:07.036Z,9.51
2018-10-02T10:41:10.623Z,9.49
2018-10-02T10:46:14.212Z,9.38
2018-10-02T10:51:17.779Z,9.47
2018-10-02T10:56:21.454Z,9.62
2018-10-02T11:01:25.141Z,9.66
2018-10-02T11:06:28.680Z,9.69
2018-10-02T11:11:32.262Z,9.65
2018-10-02T11:16:35.869Z,9.76
2018-10-02T11:21:39.420Z,9.76
2018-10-02T11:26:43.004Z,9.81
2018-10-02T11:31:46.753Z,9.74
2018-10-02T11:36:50.319Z,9.81
2018-10-02T11:41:58.882Z,10.02
2018-10-02T11:47:07.706Z,9.96
2018-10-02T11:52:15.697Z,9.92
2018-10-02T11:57:23.440Z,10.04
2018-10-02T12:02:27.071Z,10.14
2018-10-02T12:07:30.842Z,10.11
2018-10-02T12:12:35.497Z,10.22
2018-10-02T12:17:39.148Z,10.36
2018-10-02T12:22:42.861Z,10.43
2018-10-02T12:27:46.465Z,10.46
2018-10-02T12:32:50.098Z,10.51
2018-10-02T12:37:53.815Z,10.58
2018-10-02T12:42:57.417Z,10.57
2018-10-02T12:48:00.958Z,10.65
2018-10-02T12:53:10.072Z,10.71
2018-10-02T12:58:14.645Z,10.73
2018-10-02T13:03:18.271Z,10.83
2018-10-02T13:08:29.632Z,10.92
2018-10-02T13:13:33.239Z,10.98
2018-10-02T13:18:36.922Z,11.07
2018-10-02T13:23:40.574Z,11.19
2018-10-02T13:28:44.332Z,11.20
2018-10-02T13:33:47.977Z,11.22
2018-10-02T13:38:51.637Z,11.25
2018-10-02T13:43:55.239Z,11.23
2018-10-02T13:48:58.871Z,11.36
2018-10-02T13:54:02.396Z,11.43
2018-10-02T13:59:06.043Z,11.48
2018-10-02T14:04:09.708Z,11.58
2018-10-02T14:09:13.485Z,11.64
2018-10-02T14:14:17.509Z,11.63
2018-10-02T14:19:21.142Z,11.67
2018-10-02T14:24:27.633Z,11.76
2018-10-02T14:29:31.685Z,11.91
2018-10-02T14:34:38.156Z,11.90
2018-10-02T14:39:42.227Z,11.91
2018-10-02T14:44:45.829Z,11.99
2018-10-02T14:49:49.431Z,12.08
2018-10-02T14:54:53.171Z,12.09
2018-10-02T14:59:56.783Z,12.15
2018-10-02T15:05:00.664Z,12.16
2018-10-02T15:10:04.378Z,12.18
2018-10-02T15:15:08.405Z,12.29
2018-10-02T15:20:12.064Z,12.34
2018-10-02T15:25:15.945Z,12.40
2018-10-02T15:30:26.419Z,12.47
2018-10-02T15:35:29.982Z,12.51
2018-10-02T15:40:33.584Z,12.59
2018-10-02T15:45:37.788Z,12.67
2018-10-02T15:50:41.535Z,12.65
2018-10-02T15:55:45.405Z,12.71
2018-10-02T16:00:49.006Z,12.85
2018-10-02T16:05:52.597Z,12.93
2018-10-02T16:10:56.166Z,13.01
2018-10-02T16:15:59.715Z,13.13
2018-10-02T16:21:03.623Z,13.29
2018-10-02T16:26:07.610Z,13.36
2018-10-02T16:31:11.217Z,13.33
2018-10-02T16:36:14.874Z,13.24
2018-10-02T16:41:18.426Z,13.13
2018-10-02T16:46:21.978Z,13.06
2018-10-02T16:51:25.677Z,13.00
2018-10-02T16:56:29.336Z,12.96
2018-10-02T17:01:32.966Z,12.92
2018-10-02T17:06:36.576Z,12.91
2018-10-02T17:11:40.243Z,12.86
2018-10-02T17:16:43.861Z,12.78
2018-10-02T17:21:47.430Z,12.77
2018-10-02T17:26:50.997Z,12.76
2018-10-02T17:31:55.471Z,12.76
2018-10-02T17:36:59.117Z,12.71
2018-10-02T17:42:02.759Z,12.65
2018-10-02T17:47:06.503Z,12.66
2018-10-02T17:52:10.427Z,12.60
2018-10-02T17:57:17.181Z,12.61
2018-10-02T18:02:20.835Z,12.60
2018-10-02T18:07:27.374Z,12.57
2018-10-02T18:12:30.938Z,12.49
2018-10-02T18:17:35.419Z,12.44
2018-10-02T18:22:39.129Z,12.46
2018-10-02T18:27:42.727Z,12.44
2018-10-02T18:32:46.466Z,12.47
2018-10-02T18:37:50.185Z,12.43
2018-10-02T18:42:54.113Z,12.37
2018-10-02T18:47:57.790Z,12.34
2018-10-02T18:53:01.399Z,12.26
2018-10-02T18:58:05.006Z,12.23
2018-10-02T19:03:08.656Z,12.20
2018-10-02T19:08:12.875Z,12.14
2018-10-02T19:13:20.429Z,12.06
2018-10-02T19:18:24.000Z,12.05
2018-10-02T19:23:28.994Z,11.96
2018-10-02T19:28:33.015Z,11.88
2018-10-02T19:33:36.596Z,11.80
2018-10-02T19:38:47.956Z,11.71
2018-10-02T19:43:52.449Z,11.73
2018-10-02T19:48:56.161Z,11.67
2018-10-02T19:54:00.798Z,11.63
2018-10-02T19:59:04.938Z,11.58
2018-10-02T20:04:08.652Z,11.58
2018-10-02T20:09:12.762Z,11.53
2018-10-02T20:14:16.359Z,11.47
2018-10-02T20:19:19.845Z,11.45
2018-10-02T20:24:23.383Z,11.40
2018-10-02T20:29:27.058Z,11.33
2018-10-02T20:34:30.573Z,11.28
2018-10-02T20:39:34.104Z,11.24
2018-10-02T20:44:37.759Z,11.18
2018-10-02T20:49:41.267Z,11.18
2018-10-02T20:54:44.886Z,11.29
2018-10-02T20:59:48.509Z,11.42
2018-10-02T21:04:53.893Z,11.51
2018-10-02T21:09:57.642Z,11.58
2018-10-02T21:15:01.238Z,11.46
2018-10-02T21:20:04.971Z,11.38
2018-10-02T21:25:08.806Z,11.36
2018-10-02T21:30:17.307Z,11.38
2018-10-02T21:35:20.920Z,11.37
2018-10-02T21:40:24.749Z,11.32
2018-10-02T21:45:28.317Z,11.25
2018-10-02T21:50:31.952Z,11.23
2018-10-02T21:55:35.532Z,11.24
2018-10-02T22:00:45.405Z,11.27
2018-10-02T22:05:49.002Z,11.22
2018-10-02T22:10:52.534Z,11.20
2018-10-02T22:15:56.420Z,11.23
2018-10-02T22:21:00.175Z,11.25
2018-10-02T22:26:04.112Z,11.26
2018-10-02T22:31:08.053Z,11.28
2018-10-02T22:36:12.179Z,11.28
2018-10-02T22:41:15.782Z,11.28
2018-10-02T22:46:19.443Z,11.22
2018-10-02T22:51:23.112Z,11.18
2018-10-02T22:56:26.733Z,11.26
2018-10-02T23:01:30.483Z,11.24
2018-10-02T23:06:34.013Z,11.17
2018-10-02T23:11:37.559Z,11.12
2018-10-02T23:16:41.141Z,11.09
2018-10-02T23:21:44.757Z,11.06
2018-10-02T23:26:48.375Z,10.99
2018-10-02T23:31:51.985Z,10.93
2018-10-02T23:36:55.645Z,10.88
2018-10-02T23:41:59.251Z,10.83
2018-10-02T23:47:03.142Z,10.85
2018-10-02T23:52:06.958Z,10.86
2018-10-02T23:57:10.612Z,10.87
